sensor_id;sensor_type;location;lat;lon;timestamp;temperature;humidity
21830;DHT22;11077;50.264;6.798;2022-09-17T00:01:56;7.00;99.90
21830;DHT22;11077;50.264;6.798;2022-09-17T00:04:24;7.00;99.90
21830;DHT22;11077;50.264;6.798;2022-09-17T00:06:51;7.00;99.90
21830;DHT22;11077;50.264;6.798;2022-09-17T00:09:18;7.10;99.90
21830;DHT22;11077;50.264;6.798;2022-09-17T00:11:45;7.00;99.90
21830;DHT22;11077;50.264;6.798;2022-09-17T00:14:14;7.00;99.90
21830;DHT22;11077;50.264;6.798;2022-09-17T00:16:44;7.00;99.90
21830;DHT22;11077;50.264;6.798;2022-09-17T00:19:15;7.00;99.90
21830;DHT22;11077;50.264;6.798;2022-09-17T00:21:43;7.00;99.90
21830;DHT22;11077;50.264;6.798;2022-09-17T00:24:11;7.10;99.90
21830;DHT22;11077;50.264;6.798;2022-09-17T00:26:39;7.10;99.90
21830;DHT22;11077;50.264;6.798;2022-09-17T00:29:07;7.10;99.90
21830;DHT22;11077;50.264;6.798;2022-09-17T00:31:35;7.10;99.90
21830;DHT22;11077;50.264;6.798;2022-09-17T00:34:04;7.00;99.90
21830;DHT22;11077;50.264;6.798;2022-09-17T00:36:33;7.00;99.90
21830;DHT22;11077;50.264;6.798;2022-09-17T00:39:02;7.00;99.90
21830;DHT22;11077;50.264;6.798;2022-09-17T00:41:33;7.00;99.90
21830;DHT22;11077;50.264;6.798;2022-09-17T00:44:41;7.00;99.90
21830;DHT22;11077;50.264;6.798;2022-09-17T00:47:15;7.00;99.90
21830;DHT22;11077;50.264;6.798;2022-09-17T00:49:43;7.00;99.90
21830;DHT22;11077;50.264;6.798;2022-09-17T00:52:15;6.90;99.90
21830;DHT22;11077;50.264;6.798;2022-09-17T00:54:46;6.90;99.90
21830;DHT22;11077;50.264;6.798;2022-09-17T00:57:15;6.90;99.90
21830;DHT22;11077;50.264;6.798;2022-09-17T00:59:43;6.80;99.90
21830;DHT22;11077;50.264;6.798;2022-09-17T01:02:11;6.90;99.90
21830;DHT22;11077;50.264;6.798;2022-09-17T01:04:41;6.80;99.90
21830;DHT22;11077;50.264;6.798;2022-09-17T01:07:16;6.80;99.90
21830;DHT22;11077;50.264;6.798;2022-09-17T01:09:49;6.80;99.90
21830;DHT22;11077;50.264;6.798;2022-09-17T01:12:30;6.80;99.90
21830;DHT22;11077;50.264;6.798;2022-09-17T01:15:09;6.70;99.90
21830;DHT22;11077;50.264;6.798;2022-09-17T01:17:42;6.80;99.90
21830;DHT22;11077;50.264;6.798;2022-09-17T01:23:40;6.80;99.90
21830;DHT22;11077;50.264;6.798;2022-09-17T01:26:28;6.80;99.90
21830;DHT22;11077;50.264;6.798;2022-09-17T01:29:11;6.80;99.90
21830;DHT22;11077;50.264;6.798;2022-09-17T01:31:46;6.80;99.90
21830;DHT22;11077;50.264;6.798;2022-09-17T01:34:21;6.80;99.90
21830;DHT22;11077;50.264;6.798;2022-09-17T01:37:09;6.80;99.90
21830;DHT22;11077;50.264;6.798;2022-09-17T01:39:44;6.80;99.90
21830;DHT22;11077;50.264;6.798;2022-09-17T01:42:19;6.80;99.90
21830;DHT22;11077;50.264;6.798;2022-09-17T01:44:54;6.90;99.90
21830;DHT22;11077;50.264;6.798;2022-09-17T01:47:27;6.90;99.90
21830;DHT22;11077;50.264;6.798;2022-09-17T01:50:00;6.90;99.90
21830;DHT22;11077;50.264;6.798;2022-09-17T01:52:31;6.90;99.90
21830;DHT22;11077;50.264;6.798;2022-09-17T01:55:03;7.00;99.90
21830;DHT22;11077;50.264;6.798;2022-09-17T01:57:33;7.10;99.90
21830;DHT22;11077;50.264;6.798;2022-09-17T02:00:06;7.10;99.90
21830;DHT22;11077;50.264;6.798;2022-09-17T02:02:45;7.10;99.90
21830;DHT22;11077;50.264;6.798;2022-09-17T02:05:18;7.10;99.90
21830;DHT22;11077;50.264;6.798;2022-09-17T02:07:50;7.20;99.90
21830;DHT22;11077;50.264;6.798;2022-09-17T02:10:20;7.20;99.90
21830;DHT22;11077;50.264;6.798;2022-09-17T02:12:55;7.30;99.90
21830;DHT22;11077;50.264;6.798;2022-09-17T02:15:25;7.30;99.90
21830;DHT22;11077;50.264;6.798;2022-09-17T02:17:58;7.30;99.90
21830;DHT22;11077;50.264;6.798;2022-09-17T02:20:34;7.30;99.90
21830;DHT22;11077;50.264;6.798;2022-09-17T02:23:09;7.40;99.90
21830;DHT22;11077;50.264;6.798;2022-09-17T02:25:43;7.40;99.90
21830;DHT22;11077;50.264;6.798;2022-09-17T02:28:16;7.40;99.90
21830;DHT22;11077;50.264;6.798;2022-09-17T02:30:44;7.40;99.90
21830;DHT22;11077;50.264;6.798;2022-09-17T02:33:13;7.40;99.90
21830;DHT22;11077;50.264;6.798;2022-09-17T02:35:41;7.40;99.90
21830;DHT22;11077;50.264;6.798;2022-09-17T02:38:09;7.40;99.90
21830;DHT22;11077;50.264;6.798;2022-09-17T02:40:43;7.50;99.90
21830;DHT22;11077;50.264;6.798;2022-09-17T02:43:20;7.50;99.90
21830;DHT22;11077;50.264;6.798;2022-09-17T02:45:57;7.50;99.90
21830;DHT22;11077;50.264;6.798;2022-09-17T02:48:53;7.50;99.90
21830;DHT22;11077;50.264;6.798;2022-09-17T02:51:32;7.50;99.90
21830;DHT22;11077;50.264;6.798;2022-09-17T02:54:09;7.50;99.90
21830;DHT22;11077;50.264;6.798;2022-09-17T02:56:43;7.50;99.90
21830;DHT22;11077;50.264;6.798;2022-09-17T02:59:18;7.50;99.90
21830;DHT22;11077;50.264;6.798;2022-09-17T03:01:54;7.60;99.90
21830;DHT22;11077;50.264;6.798;2022-09-17T03:04:24;7.60;99.90
21830;DHT22;11077;50.264;6.798;2022-09-17T03:06:54;7.60;99.90
21830;DHT22;11077;50.264;6.798;2022-09-17T03:09:23;7.60;99.90
21830;DHT22;11077;50.264;6.798;2022-09-17T03:11:50;7.60;99.90
21830;DHT22;11077;50.264;6.798;2022-09-17T03:14:17;7.60;99.90
21830;DHT22;11077;50.264;6.798;2022-09-17T03:16:46;7.60;99.90
21830;DHT22;11077;50.264;6.798;2022-09-17T03:19:13;7.60;99.90
21830;DHT22;11077;50.264;6.798;2022-09-17T03:21:42;7.50;99.90
21830;DHT22;11077;50.264;6.798;2022-09-17T03:24:09;7.50;99.90
21830;DHT22;11077;50.264;6.798;2022-09-17T03:26:36;7.50;99.90
21830;DHT22;11077;50.264;6.798;2022-09-17T03:29:04;7.50;99.90
21830;DHT22;11077;50.264;6.798;2022-09-17T03:31:31;7.50;99.90
21830;DHT22;11077;50.264;6.798;2022-09-17T03:33:58;7.50;99.90
21830;DHT22;11077;50.264;6.798;2022-09-17T03:36:26;7.40;99.90
21830;DHT22;11077;50.264;6.798;2022-09-17T03:38:55;7.40;99.90
21830;DHT22;11077;50.264;6.798;2022-09-17T03:41:22;7.50;99.90
21830;DHT22;11077;50.264;6.798;2022-09-17T03:43:50;7.50;99.90
21830;DHT22;11077;50.264;6.798;2022-09-17T03:46:18;7.50;99.90
21830;DHT22;11077;50.264;6.798;2022-09-17T03:48:45;7.50;99.90
21830;DHT22;11077;50.264;6.798;2022-09-17T03:51:13;7.50;99.90
21830;DHT22;11077;50.264;6.798;2022-09-17T03:53:40;7.50;99.90
21830;DHT22;11077;50.264;6.798;2022-09-17T03:56:08;7.60;99.90
21830;DHT22;11077;50.264;6.798;2022-09-17T03:58:35;7.60;99.90
21830;DHT22;11077;50.264;6.798;2022-09-17T04:01:03;7.50;99.90
21830;DHT22;11077;50.264;6.798;2022-09-17T04:03:31;7.60;99.90
21830;DHT22;11077;50.264;6.798;2022-09-17T04:05:58;7.60;99.90
21830;DHT22;11077;50.264;6.798;2022-09-17T04:08:25;7.60;99.90
21830;DHT22;11077;50.264;6.798;2022-09-17T04:10:53;7.60;99.90
21830;DHT22;11077;50.264;6.798;2022-09-17T04:13:21;7.60;99.90
21830;DHT22;11077;50.264;6.798;2022-09-17T04:15:49;7.60;99.90
21830;DHT22;11077;50.264;6.798;2022-09-17T04:18:16;7.60;99.90
21830;DHT22;11077;50.264;6.798;2022-09-17T04:20:44;7.60;99.90
21830;DHT22;11077;50.264;6.798;2022-09-17T04:23:11;7.70;99.90
21830;DHT22;11077;50.264;6.798;2022-09-17T04:25:38;7.70;99.90
21830;DHT22;11077;50.264;6.798;2022-09-17T04:28:06;7.70;99.90
21830;DHT22;11077;50.264;6.798;2022-09-17T04:30:35;7.70;99.90
21830;DHT22;11077;50.264;6.798;2022-09-17T04:33:03;7.70;99.90
21830;DHT22;11077;50.264;6.798;2022-09-17T04:35:30;7.70;99.90
21830;DHT22;11077;50.264;6.798;2022-09-17T04:37:57;7.70;99.90
21830;DHT22;11077;50.264;6.798;2022-09-17T04:40:26;7.60;99.90
21830;DHT22;11077;50.264;6.798;2022-09-17T04:42:53;7.70;99.90
21830;DHT22;11077;50.264;6.798;2022-09-17T04:45:21;7.70;99.90
21830;DHT22;11077;50.264;6.798;2022-09-17T04:47:50;7.70;99.90
21830;DHT22;11077;50.264;6.798;2022-09-17T04:50:17;7.70;99.90
21830;DHT22;11077;50.264;6.798;2022-09-17T04:52:45;7.70;99.90
21830;DHT22;11077;50.264;6.798;2022-09-17T04:55:13;7.70;99.90
21830;DHT22;11077;50.264;6.798;2022-09-17T04:57:45;7.70;99.90
21830;DHT22;11077;50.264;6.798;2022-09-17T05:00:13;7.70;99.90
21830;DHT22;11077;50.264;6.798;2022-09-17T05:02:44;7.70;99.90
21830;DHT22;11077;50.264;6.798;2022-09-17T05:05:13;7.70;99.90
21830;DHT22;11077;50.264;6.798;2022-09-17T05:07:41;7.70;99.90
21830;DHT22;11077;50.264;6.798;2022-09-17T05:10:09;7.70;99.90
21830;DHT22;11077;50.264;6.798;2022-09-17T05:12:37;7.70;99.90
21830;DHT22;11077;50.264;6.798;2022-09-17T05:15:05;7.70;99.90
21830;DHT22;11077;50.264;6.798;2022-09-17T05:17:33;7.70;99.90
21830;DHT22;11077;50.264;6.798;2022-09-17T05:20:00;7.80;99.90
21830;DHT22;11077;50.264;6.798;2022-09-17T05:22:29;7.80;99.90
21830;DHT22;11077;50.264;6.798;2022-09-17T05:24:57;7.80;99.90
21830;DHT22;11077;50.264;6.798;2022-09-17T05:27:26;7.80;99.90
21830;DHT22;11077;50.264;6.798;2022-09-17T05:29:54;7.80;99.90
21830;DHT22;11077;50.264;6.798;2022-09-17T05:32:23;7.80;99.90
21830;DHT22;11077;50.264;6.798;2022-09-17T05:34:51;7.70;99.90
21830;DHT22;11077;50.264;6.798;2022-09-17T05:37:21;7.80;99.90
21830;DHT22;11077;50.264;6.798;2022-09-17T05:40:00;7.80;99.90
21830;DHT22;11077;50.264;6.798;2022-09-17T05:42:41;7.80;99.90
21830;DHT22;11077;50.264;6.798;2022-09-17T05:45:10;7.70;99.90
21830;DHT22;11077;50.264;6.798;2022-09-17T05:47:37;7.80;99.90
21830;DHT22;11077;50.264;6.798;2022-09-17T05:50:05;7.80;99.90
21830;DHT22;11077;50.264;6.798;2022-09-17T05:52:35;7.80;99.90
21830;DHT22;11077;50.264;6.798;2022-09-17T05:55:06;7.80;99.90
21830;DHT22;11077;50.264;6.798;2022-09-17T05:57:36;7.80;99.90
21830;DHT22;11077;50.264;6.798;2022-09-17T06:00:04;7.80;99.90
21830;DHT22;11077;50.264;6.798;2022-09-17T06:02:38;7.90;99.90
21830;DHT22;11077;50.264;6.798;2022-09-17T06:05:06;7.90;99.90
21830;DHT22;11077;50.264;6.798;2022-09-17T06:07:34;7.90;99.90
21830;DHT22;11077;50.264;6.798;2022-09-17T06:10:07;7.90;99.90
21830;DHT22;11077;50.264;6.798;2022-09-17T06:12:34;7.90;99.90
21830;DHT22;11077;50.264;6.798;2022-09-17T06:15:02;7.90;99.90
21830;DHT22;11077;50.264;6.798;2022-09-17T06:17:32;7.90;99.90
21830;DHT22;11077;50.264;6.798;2022-09-17T06:20:00;7.90;99.90
21830;DHT22;11077;50.264;6.798;2022-09-17T06:22:27;7.80;99.90
21830;DHT22;11077;50.264;6.798;2022-09-17T06:24:56;7.80;99.90
21830;DHT22;11077;50.264;6.798;2022-09-17T06:27:31;7.90;99.90
21830;DHT22;11077;50.264;6.798;2022-09-17T06:29:59;7.80;99.90
21830;DHT22;11077;50.264;6.798;2022-09-17T06:32:27;7.80;99.90
21830;DHT22;11077;50.264;6.798;2022-09-17T06:34:55;7.80;99.90
21830;DHT22;11077;50.264;6.798;2022-09-17T06:37:27;7.80;99.90
21830;DHT22;11077;50.264;6.798;2022-09-17T06:39:54;7.80;99.90
21830;DHT22;11077;50.264;6.798;2022-09-17T06:42:22;7.90;99.90
21830;DHT22;11077;50.264;6.798;2022-09-17T06:44:51;7.90;99.90
21830;DHT22;11077;50.264;6.798;2022-09-17T06:47:18;7.90;99.90
21830;DHT22;11077;50.264;6.798;2022-09-17T06:49:46;7.90;99.90
21830;DHT22;11077;50.264;6.798;2022-09-17T06:52:14;8.00;99.90
21830;DHT22;11077;50.264;6.798;2022-09-17T06:54:41;8.10;99.90
21830;DHT22;11077;50.264;6.798;2022-09-17T06:57:08;8.10;99.90
21830;DHT22;11077;50.264;6.798;2022-09-17T06:59:37;8.20;99.90
21830;DHT22;11077;50.264;6.798;2022-09-17T07:02:08;8.30;99.90
21830;DHT22;11077;50.264;6.798;2022-09-17T07:04:35;8.40;99.90
21830;DHT22;11077;50.264;6.798;2022-09-17T07:07:03;8.40;99.90
21830;DHT22;11077;50.264;6.798;2022-09-17T07:09:31;8.50;99.90
21830;DHT22;11077;50.264;6.798;2022-09-17T07:11:59;8.50;99.90
21830;DHT22;11077;50.264;6.798;2022-09-17T07:14:27;8.60;99.90
21830;DHT22;11077;50.264;6.798;2022-09-17T07:16:54;8.60;99.90
21830;DHT22;11077;50.264;6.798;2022-09-17T07:19:23;8.70;99.90
21830;DHT22;11077;50.264;6.798;2022-09-17T07:21:50;8.80;99.90
21830;DHT22;11077;50.264;6.798;2022-09-17T07:24:18;8.80;99.90
21830;DHT22;11077;50.264;6.798;2022-09-17T07:26:45;8.80;99.90
21830;DHT22;11077;50.264;6.798;2022-09-17T07:29:12;8.90;99.90
21830;DHT22;11077;50.264;6.798;2022-09-17T07:31:39;8.90;99.90
21830;DHT22;11077;50.264;6.798;2022-09-17T07:34:08;8.90;99.90
21830;DHT22;11077;50.264;6.798;2022-09-17T07:36:37;8.90;99.90
21830;DHT22;11077;50.264;6.798;2022-09-17T07:39:04;8.90;99.90
21830;DHT22;11077;50.264;6.798;2022-09-17T07:41:32;8.90;99.90
21830;DHT22;11077;50.264;6.798;2022-09-17T07:44:00;8.90;99.90
21830;DHT22;11077;50.264;6.798;2022-09-17T07:46:28;8.80;99.90
21830;DHT22;11077;50.264;6.798;2022-09-17T07:48:56;8.80;99.90
21830;DHT22;11077;50.264;6.798;2022-09-17T07:51:25;8.90;99.90
21830;DHT22;11077;50.264;6.798;2022-09-17T07:53:56;8.90;99.90
21830;DHT22;11077;50.264;6.798;2022-09-17T07:56:25;8.80;99.90
21830;DHT22;11077;50.264;6.798;2022-09-17T07:58:53;8.80;99.90
21830;DHT22;11077;50.264;6.798;2022-09-17T08:01:21;8.80;99.90
21830;DHT22;11077;50.264;6.798;2022-09-17T08:03:49;8.70;99.90
21830;DHT22;11077;50.264;6.798;2022-09-17T08:06:19;8.70;99.90
21830;DHT22;11077;50.264;6.798;2022-09-17T08:08:46;8.50;99.90
21830;DHT22;11077;50.264;6.798;2022-09-17T08:11:18;8.50;99.90
21830;DHT22;11077;50.264;6.798;2022-09-17T08:13:46;8.50;99.90
21830;DHT22;11077;50.264;6.798;2022-09-17T08:16:14;8.40;99.90
21830;DHT22;11077;50.264;6.798;2022-09-17T08:18:42;8.40;99.90
21830;DHT22;11077;50.264;6.798;2022-09-17T08:21:11;8.30;99.90
21830;DHT22;11077;50.264;6.798;2022-09-17T08:23:39;8.20;99.90
21830;DHT22;11077;50.264;6.798;2022-09-17T08:26:11;8.20;99.90
21830;DHT22;11077;50.264;6.798;2022-09-17T08:28:43;8.10;99.90
21830;DHT22;11077;50.264;6.798;2022-09-17T08:31:13;8.10;99.90
21830;DHT22;11077;50.264;6.798;2022-09-17T08:33:40;8.00;99.90
21830;DHT22;11077;50.264;6.798;2022-09-17T08:36:10;8.10;99.90
21830;DHT22;11077;50.264;6.798;2022-09-17T08:38:38;8.10;99.90
21830;DHT22;11077;50.264;6.798;2022-09-17T08:41:16;8.30;99.90
21830;DHT22;11077;50.264;6.798;2022-09-17T08:43:52;8.50;99.90
21830;DHT22;11077;50.264;6.798;2022-09-17T08:46:23;8.60;99.90
21830;DHT22;11077;50.264;6.798;2022-09-17T08:49:01;8.80;99.90
21830;DHT22;11077;50.264;6.798;2022-09-17T08:51:36;8.90;99.90
21830;DHT22;11077;50.264;6.798;2022-09-17T08:54:15;9.00;99.90
21830;DHT22;11077;50.264;6.798;2022-09-17T08:56:45;9.00;99.90
21830;DHT22;11077;50.264;6.798;2022-09-17T08:59:21;9.10;99.90
21830;DHT22;11077;50.264;6.798;2022-09-17T09:01:58;9.10;99.90
21830;DHT22;11077;50.264;6.798;2022-09-17T09:04:49;9.30;99.90
21830;DHT22;11077;50.264;6.798;2022-09-17T09:07:20;9.20;99.90
21830;DHT22;11077;50.264;6.798;2022-09-17T09:09:56;9.20;99.90
21830;DHT22;11077;50.264;6.798;2022-09-17T09:12:33;9.20;99.90
21830;DHT22;11077;50.264;6.798;2022-09-17T09:15:05;9.30;99.90
21830;DHT22;11077;50.264;6.798;2022-09-17T09:17:37;9.40;99.90
21830;DHT22;11077;50.264;6.798;2022-09-17T09:20:22;9.50;99.90
21830;DHT22;11077;50.264;6.798;2022-09-17T09:22:52;9.50;99.90
21830;DHT22;11077;50.264;6.798;2022-09-17T09:25:22;9.60;99.90
21830;DHT22;11077;50.264;6.798;2022-09-17T09:28:01;9.70;99.90
21830;DHT22;11077;50.264;6.798;2022-09-17T09:30:40;9.80;99.90
21830;DHT22;11077;50.264;6.798;2022-09-17T09:33:12;9.80;99.90
21830;DHT22;11077;50.264;6.798;2022-09-17T09:35:43;10.00;99.90
21830;DHT22;11077;50.264;6.798;2022-09-17T09:38:17;10.10;99.90
21830;DHT22;11077;50.264;6.798;2022-09-17T09:40:54;10.10;99.90
21830;DHT22;11077;50.264;6.798;2022-09-17T09:43:38;10.00;99.90
21830;DHT22;11077;50.264;6.798;2022-09-17T09:46:26;9.80;99.90
21830;DHT22;11077;50.264;6.798;2022-09-17T09:49:06;9.70;99.90
21830;DHT22;11077;50.264;6.798;2022-09-17T09:51:46;9.60;99.90
21830;DHT22;11077;50.264;6.798;2022-09-17T09:54:26;9.60;99.90
21830;DHT22;11077;50.264;6.798;2022-09-17T09:56:56;9.90;99.90
21830;DHT22;11077;50.264;6.798;2022-09-17T09:59:25;10.00;99.90
21830;DHT22;11077;50.264;6.798;2022-09-17T10:01:54;10.10;99.90
21830;DHT22;11077;50.264;6.798;2022-09-17T10:04:24;10.20;99.90
21830;DHT22;11077;50.264;6.798;2022-09-17T10:06:53;10.30;99.90
21830;DHT22;11077;50.264;6.798;2022-09-17T10:09:24;10.30;99.90
21830;DHT22;11077;50.264;6.798;2022-09-17T10:12:00;10.20;99.90
21830;DHT22;11077;50.264;6.798;2022-09-17T10:14:32;10.40;99.90
21830;DHT22;11077;50.264;6.798;2022-09-17T10:17:18;10.50;99.90
21830;DHT22;11077;50.264;6.798;2022-09-17T10:22:32;10.60;99.90
21830;DHT22;11077;50.264;6.798;2022-09-17T10:25:04;10.60;99.90
21830;DHT22;11077;50.264;6.798;2022-09-17T10:27:33;10.80;99.90
21830;DHT22;11077;50.264;6.798;2022-09-17T10:30:12;11.00;99.90
21830;DHT22;11077;50.264;6.798;2022-09-17T10:32:42;10.90;99.90
21830;DHT22;11077;50.264;6.798;2022-09-17T10:35:25;10.90;99.90
21830;DHT22;11077;50.264;6.798;2022-09-17T10:37:53;10.90;99.90
21830;DHT22;11077;50.264;6.798;2022-09-17T10:40:29;11.00;99.90
21830;DHT22;11077;50.264;6.798;2022-09-17T10:43:16;11.10;99.90
21830;DHT22;11077;50.264;6.798;2022-09-17T10:45:53;11.10;99.90
21830;DHT22;11077;50.264;6.798;2022-09-17T10:48:23;11.20;99.90
21830;DHT22;11077;50.264;6.798;2022-09-17T10:50:54;11.10;99.90
21830;DHT22;11077;50.264;6.798;2022-09-17T10:53:24;11.00;99.90
21830;DHT22;11077;50.264;6.798;2022-09-17T10:55:56;10.90;99.90
21830;DHT22;11077;50.264;6.798;2022-09-17T10:58:40;10.70;99.90
21830;DHT22;11077;50.264;6.798;2022-09-17T11:01:15;10.60;99.90
21830;DHT22;11077;50.264;6.798;2022-09-17T11:03:57;10.40;99.90
21830;DHT22;11077;50.264;6.798;2022-09-17T11:07:00;10.30;99.90
21830;DHT22;11077;50.264;6.798;2022-09-17T11:09:38;10.40;99.90
21830;DHT22;11077;50.264;6.798;2022-09-17T11:12:27;10.50;99.90
21830;DHT22;11077;50.264;6.798;2022-09-17T11:17:52;10.40;99.90
21830;DHT22;11077;50.264;6.798;2022-09-17T11:20:48;10.40;99.90
21830;DHT22;11077;50.264;6.798;2022-09-17T11:23:36;10.60;99.90
21830;DHT22;11077;50.264;6.798;2022-09-17T11:26:31;10.70;99.90
21830;DHT22;11077;50.264;6.798;2022-09-17T11:29:23;11.00;99.90
21830;DHT22;11077;50.264;6.798;2022-09-17T11:32:01;11.10;99.90
21830;DHT22;11077;50.264;6.798;2022-09-17T11:34:36;11.40;99.90
21830;DHT22;11077;50.264;6.798;2022-09-17T11:37:10;11.30;99.90
21830;DHT22;11077;50.264;6.798;2022-09-17T11:39:45;11.40;99.90
21830;DHT22;11077;50.264;6.798;2022-09-17T11:42:18;11.50;99.90
21830;DHT22;11077;50.264;6.798;2022-09-17T11:44:50;11.70;99.90
21830;DHT22;11077;50.264;6.798;2022-09-17T11:47:22;11.70;99.90
21830;DHT22;11077;50.264;6.798;2022-09-17T11:49:56;11.70;99.90
21830;DHT22;11077;50.264;6.798;2022-09-17T11:52:31;11.80;99.90
21830;DHT22;11077;50.264;6.798;2022-09-17T11:55:10;11.70;99.90
21830;DHT22;11077;50.264;6.798;2022-09-17T11:57:45;11.50;99.90
21830;DHT22;11077;50.264;6.798;2022-09-17T12:00:15;11.50;99.90
21830;DHT22;11077;50.264;6.798;2022-09-17T12:02:57;11.40;99.90
21830;DHT22;11077;50.264;6.798;2022-09-17T12:05:29;11.30;99.90
21830;DHT22;11077;50.264;6.798;2022-09-17T12:08:08;11.30;99.90
21830;DHT22;11077;50.264;6.798;2022-09-17T12:10:41;11.30;99.90
21830;DHT22;11077;50.264;6.798;2022-09-17T12:13:17;11.30;99.90
21830;DHT22;11077;50.264;6.798;2022-09-17T12:15:49;11.20;99.90
21830;DHT22;11077;50.264;6.798;2022-09-17T12:18:27;11.10;99.90
21830;DHT22;11077;50.264;6.798;2022-09-17T12:20:59;11.10;99.90
21830;DHT22;11077;50.264;6.798;2022-09-17T12:23:39;11.10;99.90
21830;DHT22;11077;50.264;6.798;2022-09-17T12:26:17;11.00;99.90
21830;DHT22;11077;50.264;6.798;2022-09-17T12:28:55;11.00;99.90
21830;DHT22;11077;50.264;6.798;2022-09-17T12:31:35;11.30;99.90
21830;DHT22;11077;50.264;6.798;2022-09-17T12:34:19;11.60;99.90
21830;DHT22;11077;50.264;6.798;2022-09-17T12:36:52;11.70;99.90
21830;DHT22;11077;50.264;6.798;2022-09-17T12:40:01;11.70;99.90
21830;DHT22;11077;50.264;6.798;2022-09-17T12:42:53;11.70;99.90
21830;DHT22;11077;50.264;6.798;2022-09-17T12:45:39;11.50;99.90
21830;DHT22;11077;50.264;6.798;2022-09-17T12:48:42;11.40;99.90
21830;DHT22;11077;50.264;6.798;2022-09-17T12:51:38;11.20;99.90
21830;DHT22;11077;50.264;6.798;2022-09-17T12:54:21;11.10;99.90
21830;DHT22;11077;50.264;6.798;2022-09-17T12:56:59;11.10;99.90
21830;DHT22;11077;50.264;6.798;2022-09-17T12:59:29;11.00;99.90
21830;DHT22;11077;50.264;6.798;2022-09-17T13:02:02;10.90;99.90
21830;DHT22;11077;50.264;6.798;2022-09-17T13:04:51;11.00;99.90
21830;DHT22;11077;50.264;6.798;2022-09-17T13:07:44;10.90;99.90
21830;DHT22;11077;50.264;6.798;2022-09-17T13:13:51;10.90;99.90
21830;DHT22;11077;50.264;6.798;2022-09-17T13:16:24;10.80;99.90
21830;DHT22;11077;50.264;6.798;2022-09-17T13:18:57;11.20;99.90
21830;DHT22;11077;50.264;6.798;2022-09-17T13:21:31;11.20;99.90
21830;DHT22;11077;50.264;6.798;2022-09-17T13:24:01;11.40;99.90
21830;DHT22;11077;50.264;6.798;2022-09-17T13:26:34;11.60;99.90
21830;DHT22;11077;50.264;6.798;2022-09-17T13:29:03;11.80;99.90
21830;DHT22;11077;50.264;6.798;2022-09-17T13:31:46;11.90;99.90
21830;DHT22;11077;50.264;6.798;2022-09-17T13:34:27;11.60;99.90
21830;DHT22;11077;50.264;6.798;2022-09-17T13:36:55;11.30;99.90
21830;DHT22;11077;50.264;6.798;2022-09-17T13:39:41;11.10;99.90
21830;DHT22;11077;50.264;6.798;2022-09-17T13:42:17;10.90;99.90
21830;DHT22;11077;50.264;6.798;2022-09-17T13:44:49;10.70;99.90
21830;DHT22;11077;50.264;6.798;2022-09-17T13:47:22;10.50;99.90
21830;DHT22;11077;50.264;6.798;2022-09-17T13:49:54;10.50;99.90
21830;DHT22;11077;50.264;6.798;2022-09-17T13:52:46;10.50;99.90
21830;DHT22;11077;50.264;6.798;2022-09-17T13:55:38;10.50;99.90
21830;DHT22;11077;50.264;6.798;2022-09-17T13:58:20;10.70;99.90
21830;DHT22;11077;50.264;6.798;2022-09-17T14:00:53;10.90;99.90
21830;DHT22;11077;50.264;6.798;2022-09-17T14:03:51;10.90;99.90
21830;DHT22;11077;50.264;6.798;2022-09-17T14:06:48;10.80;99.90
21830;DHT22;11077;50.264;6.798;2022-09-17T14:09:50;10.60;99.90
21830;DHT22;11077;50.264;6.798;2022-09-17T14:12:56;10.20;99.90
21830;DHT22;11077;50.264;6.798;2022-09-17T14:15:53;10.00;99.90
21830;DHT22;11077;50.264;6.798;2022-09-17T14:18:57;9.90;99.90
21830;DHT22;11077;50.264;6.798;2022-09-17T14:21:31;9.90;99.90
21830;DHT22;11077;50.264;6.798;2022-09-17T14:24:19;9.60;99.90
21830;DHT22;11077;50.264;6.798;2022-09-17T14:27:24;9.20;99.90
21830;DHT22;11077;50.264;6.798;2022-09-17T14:30:09;9.00;99.90
21830;DHT22;11077;50.264;6.798;2022-09-17T14:32:41;8.90;99.90
21830;DHT22;11077;50.264;6.798;2022-09-17T14:35:16;8.80;99.90
21830;DHT22;11077;50.264;6.798;2022-09-17T14:37:49;8.80;99.90
21830;DHT22;11077;50.264;6.798;2022-09-17T14:40:19;8.80;99.90
21830;DHT22;11077;50.264;6.798;2022-09-17T14:42:49;8.90;99.90
21830;DHT22;11077;50.264;6.798;2022-09-17T14:45:21;8.90;99.90
21830;DHT22;11077;50.264;6.798;2022-09-17T14:47:51;8.80;99.90
21830;DHT22;11077;50.264;6.798;2022-09-17T14:50:40;8.80;99.90
21830;DHT22;11077;50.264;6.798;2022-09-17T14:53:15;8.80;99.90
21830;DHT22;11077;50.264;6.798;2022-09-17T14:55:44;8.70;99.90
21830;DHT22;11077;50.264;6.798;2022-09-17T14:58:29;8.70;99.90
21830;DHT22;11077;50.264;6.798;2022-09-17T15:00:58;8.60;99.90
21830;DHT22;11077;50.264;6.798;2022-09-17T15:03:25;8.50;99.90
21830;DHT22;11077;50.264;6.798;2022-09-17T15:05:54;8.50;99.90
21830;DHT22;11077;50.264;6.798;2022-09-17T15:08:26;8.40;99.90
21830;DHT22;11077;50.264;6.798;2022-09-17T15:10:58;8.40;99.90
21830;DHT22;11077;50.264;6.798;2022-09-17T15:13:27;8.50;99.90
21830;DHT22;11077;50.264;6.798;2022-09-17T15:15:59;8.50;99.90
21830;DHT22;11077;50.264;6.798;2022-09-17T15:18:36;8.50;99.90
21830;DHT22;11077;50.264;6.798;2022-09-17T15:21:16;8.60;99.90
21830;DHT22;11077;50.264;6.798;2022-09-17T15:23:46;8.70;99.90
21830;DHT22;11077;50.264;6.798;2022-09-17T15:26:21;8.90;99.90
21830;DHT22;11077;50.264;6.798;2022-09-17T15:28:49;8.90;99.90
21830;DHT22;11077;50.264;6.798;2022-09-17T15:31:18;9.10;99.90
21830;DHT22;11077;50.264;6.798;2022-09-17T15:33:47;9.00;99.90
21830;DHT22;11077;50.264;6.798;2022-09-17T15:36:21;9.10;99.90
21830;DHT22;11077;50.264;6.798;2022-09-17T15:38:51;9.10;99.90
21830;DHT22;11077;50.264;6.798;2022-09-17T15:41:30;9.10;99.90
21830;DHT22;11077;50.264;6.798;2022-09-17T15:44:10;9.20;99.90
21830;DHT22;11077;50.264;6.798;2022-09-17T15:46:42;9.30;99.90
21830;DHT22;11077;50.264;6.798;2022-09-17T15:49:32;9.30;99.90
21830;DHT22;11077;50.264;6.798;2022-09-17T15:52:27;9.40;99.90
21830;DHT22;11077;50.264;6.798;2022-09-17T15:54:58;9.50;99.90
21830;DHT22;11077;50.264;6.798;2022-09-17T15:57:26;9.50;99.90
21830;DHT22;11077;50.264;6.798;2022-09-17T15:59:55;9.50;99.90
21830;DHT22;11077;50.264;6.798;2022-09-17T16:02:34;9.40;99.90
21830;DHT22;11077;50.264;6.798;2022-09-17T16:08:23;9.40;99.90
21830;DHT22;11077;50.264;6.798;2022-09-17T16:10:59;9.50;99.90
21830;DHT22;11077;50.264;6.798;2022-09-17T16:13:26;9.50;99.90
21830;DHT22;11077;50.264;6.798;2022-09-17T16:15:53;9.50;99.90
21830;DHT22;11077;50.264;6.798;2022-09-17T16:18:21;9.60;99.90
21830;DHT22;11077;50.264;6.798;2022-09-17T16:20:48;9.60;99.90
21830;DHT22;11077;50.264;6.798;2022-09-17T16:23:16;9.60;99.90
21830;DHT22;11077;50.264;6.798;2022-09-17T16:25:45;9.60;99.90
21830;DHT22;11077;50.264;6.798;2022-09-17T16:28:13;9.60;99.90
21830;DHT22;11077;50.264;6.798;2022-09-17T16:30:45;9.60;99.90
21830;DHT22;11077;50.264;6.798;2022-09-17T16:33:14;9.60;99.90
21830;DHT22;11077;50.264;6.798;2022-09-17T16:35:42;9.60;99.90
21830;DHT22;11077;50.264;6.798;2022-09-17T16:38:10;9.60;99.90